createdAt,value
2022-12-22T00:00:23.325Z,10.20
2022-12-22T00:03:09.121Z,10.23
2022-12-22T00:05:54.575Z,10.97
2022-12-22T00:08:39.901Z,11.27
2022-12-22T00:11:30.067Z,10.40
2022-12-22T00:14:15.933Z,12.83
2022-12-22T00:17:01.795Z,10.53
2022-12-22T00:19:48.533Z,10.87
2022-12-22T00:22:39.573Z,10.23
2022-12-22T00:25:25.953Z,16.13
2022-12-22T00:28:11.466Z,10.53
2022-12-22T00:30:57.100Z,11.23
2022-12-22T00:33:42.544Z,11.47
2022-12-22T00:36:30.779Z,12.83
2022-12-22T00:39:16.494Z,10.97
2022-12-22T00:42:04.605Z,12.17
2022-12-22T00:44:50.289Z,10.53
2022-12-22T00:47:46.990Z,14.13
2022-12-22T00:50:32.881Z,12.00
2022-12-22T00:53:19.207Z,10.33
2022-12-22T00:56:04.680Z,13.00
2022-12-22T00:58:51.890Z,14.47
2022-12-22T01:01:37.459Z,10.67
2022-12-22T01:04:23.555Z,12.67
2022-12-22T01:07:08.758Z,11.03
2022-12-22T01:09:54.827Z,9.47
2022-12-22T01:12:52.195Z,11.10
2022-12-22T01:15:39.349Z,12.67
2022-12-22T01:18:25.985Z,12.43
2022-12-22T01:21:11.968Z,11.37
2022-12-22T01:23:58.389Z,9.43
2022-12-22T01:26:43.917Z,17.10
2022-12-22T01:29:30.231Z,10.47
2022-12-22T01:32:15.689Z,16.33
2022-12-22T01:35:01.255Z,11.90
2022-12-22T01:37:46.775Z,12.40
2022-12-22T01:40:36.754Z,13.67
2022-12-22T01:43:32.764Z,10.50
2022-12-22T01:46:41.059Z,10.10
2022-12-22T01:49:29.564Z,10.63
2022-12-22T01:52:15.358Z,13.57
2022-12-22T01:55:02.115Z,13.63
2022-12-22T01:57:48.831Z,9.67
2022-12-22T02:00:34.736Z,13.73
2022-12-22T02:03:22.649Z,9.20
2022-12-22T02:06:24.245Z,11.97
2022-12-22T02:09:19.927Z,11.27
2022-12-22T02:12:19.528Z,10.53
2022-12-22T02:15:15.161Z,12.23
2022-12-22T02:18:16.323Z,10.10
2022-12-22T02:21:01.845Z,11.57
2022-12-22T02:24:12.427Z,11.87
2022-12-22T02:27:05.127Z,9.53
2022-12-22T02:29:57.965Z,8.80
2022-12-22T02:32:44.668Z,9.77
2022-12-22T02:35:34.782Z,10.67
2022-12-22T02:38:52.677Z,11.47
2022-12-22T02:41:57.324Z,7.80
2022-12-22T02:45:04.477Z,7.67
2022-12-22T02:48:06.790Z,8.10
2022-12-22T02:50:59.579Z,7.63
2022-12-22T02:53:47.427Z,8.73
2022-12-22T02:56:33.090Z,9.80
2022-12-22T02:59:18.950Z,8.90
2022-12-22T03:02:05.647Z,9.53
2022-12-22T03:04:51.339Z,9.67
2022-12-22T03:07:36.631Z,15.60
2022-12-22T03:10:22.666Z,8.93
2022-12-22T03:13:08.209Z,9.33
2022-12-22T03:15:54.038Z,9.33
2022-12-22T03:18:39.504Z,9.10
2022-12-22T03:21:25.561Z,8.67
2022-12-22T03:24:11.162Z,9.10
2022-12-22T03:26:39.140Z,7.83
2022-12-22T03:29:06.416Z,7.47
2022-12-22T03:31:33.354Z,7.50
2022-12-22T03:34:00.256Z,11.00
2022-12-22T03:36:27.864Z,9.13
2022-12-22T03:38:54.794Z,8.17
2022-12-22T03:41:40.090Z,6.83
2022-12-22T03:44:25.940Z,6.23
2022-12-22T03:46:52.926Z,6.07
2022-12-22T03:49:20.075Z,6.90
2022-12-22T03:51:49.704Z,6.00
2022-12-22T03:54:19.215Z,6.00
2022-12-22T03:56:46.823Z,4.43
2022-12-22T03:59:13.863Z,6.27
2022-12-22T04:01:49.382Z,5.27
2022-12-22T04:04:17.949Z,4.87
2022-12-22T04:06:44.908Z,5.37
2022-12-22T04:09:12.121Z,4.70
2022-12-22T04:11:58.674Z,5.90
2022-12-22T04:14:31.543Z,13.33
2022-12-22T04:17:01.513Z,4.30
2022-12-22T04:19:28.378Z,4.63
2022-12-22T04:21:58.294Z,6.10
2022-12-22T04:24:26.600Z,7.90
2022-12-22T04:26:53.633Z,4.10
2022-12-22T04:29:20.467Z,5.90
2022-12-22T04:31:47.355Z,3.80
2022-12-22T04:34:14.198Z,4.93
2022-12-22T04:36:40.994Z,3.53
2022-12-22T04:39:07.866Z,3.50
2022-12-22T04:41:36.617Z,4.67
2022-12-22T04:44:07.455Z,5.80
2022-12-22T04:46:34.529Z,6.33
2022-12-22T04:49:01.509Z,5.47
2022-12-22T04:51:29.178Z,5.97
2022-12-22T04:53:56.593Z,3.77
2022-12-22T04:56:23.639Z,5.63
2022-12-22T04:58:50.508Z,4.23
2022-12-22T05:01:19.009Z,5.50
2022-12-22T05:03:46.412Z,4.53
2022-12-22T05:06:14.207Z,10.67
2022-12-22T05:08:41.284Z,6.63
2022-12-22T05:11:08.503Z,4.37
2022-12-22T05:13:35.658Z,7.33
2022-12-22T05:16:06.446Z,15.63
2022-12-22T05:18:34.447Z,5.90
2022-12-22T05:21:09.626Z,6.90
2022-12-22T05:23:36.554Z,6.67
2022-12-22T05:26:03.991Z,8.10
2022-12-22T05:28:32.196Z,7.27
2022-12-22T05:31:07.365Z,7.77
2022-12-22T05:33:34.765Z,6.40
2022-12-22T05:36:02.129Z,9.87
2022-12-22T05:38:29.368Z,7.63
2022-12-22T05:41:03.247Z,9.13
2022-12-22T05:43:31.186Z,13.30
2022-12-22T05:46:01.206Z,9.97
2022-12-22T05:48:33.722Z,9.30
2022-12-22T05:51:04.269Z,11.13
2022-12-22T05:53:32.089Z,9.70
2022-12-22T05:55:58.888Z,7.70
2022-12-22T05:58:27.237Z,7.77
2022-12-22T06:00:58.536Z,7.43
2022-12-22T06:03:29.529Z,8.47
2022-12-22T06:05:57.979Z,7.30
2022-12-22T06:08:25.858Z,8.27
2022-12-22T06:10:54.800Z,9.67
2022-12-22T06:13:21.754Z,13.83
2022-12-22T06:15:49.442Z,20.10
2022-12-22T06:18:16.502Z,16.07
2022-12-22T06:20:47.242Z,16.27
2022-12-22T06:23:14.179Z,18.10
2022-12-22T06:25:41.009Z,15.90
2022-12-22T06:28:08.125Z,15.73
2022-12-22T06:30:34.903Z,16.23
2022-12-22T06:33:02.101Z,17.30
2022-12-22T06:35:29.021Z,17.57
2022-12-22T06:37:56.523Z,15.83
2022-12-22T06:40:23.447Z,15.40
2022-12-22T06:43:09.652Z,16.27
2022-12-22T06:45:42.517Z,15.30
2022-12-22T06:48:11.292Z,19.27
2022-12-22T06:50:38.377Z,17.17
2022-12-22T06:53:05.567Z,16.77
2022-12-22T06:55:32.387Z,16.80
2022-12-22T06:57:59.278Z,25.50
2022-12-22T07:00:26.787Z,19.97
2022-12-22T07:02:53.840Z,24.00
2022-12-22T07:05:21.189Z,30.67
2022-12-22T07:07:48.143Z,19.83
2022-12-22T07:10:15.027Z,27.27
2022-12-22T07:12:41.891Z,22.43
2022-12-22T07:15:09.817Z,26.00
2022-12-22T07:17:36.591Z,32.63
2022-12-22T07:20:03.609Z,26.93
2022-12-22T07:22:31.214Z,27.73
2022-12-22T07:24:58.948Z,20.47
2022-12-22T07:27:25.940Z,19.97
2022-12-22T07:29:52.774Z,23.37
2022-12-22T07:32:19.598Z,19.57
2022-12-22T07:34:46.647Z,20.97
2022-12-22T07:37:13.905Z,20.90
2022-12-22T07:39:41.043Z,20.37
2022-12-22T07:42:46.582Z,21.50
2022-12-22T07:45:18.704Z,23.43
2022-12-22T07:47:46.569Z,24.37
2022-12-22T07:50:25.698Z,24.33
2022-12-22T07:52:53.535Z,16.90
2022-12-22T07:55:21.011Z,17.40
2022-12-22T07:57:47.945Z,18.43
2022-12-22T08:00:15.439Z,25.00
2022-12-22T08:02:42.853Z,26.63
2022-12-22T08:05:10.059Z,23.90
2022-12-22T08:07:37.028Z,25.97
2022-12-22T08:10:04.227Z,22.93
2022-12-22T08:12:32.732Z,24.70
2022-12-22T08:14:59.760Z,28.87
2022-12-22T08:17:27.876Z,24.80
2022-12-22T08:19:55.777Z,27.13
2022-12-22T08:22:24.001Z,31.57
2022-12-22T08:24:54.444Z,25.67
2022-12-22T08:27:26.766Z,31.03
2022-12-22T08:30:00.820Z,30.27
2022-12-22T08:32:28.066Z,35.40
2022-12-22T08:34:54.959Z,35.60
2022-12-22T08:37:25.456Z,32.87
2022-12-22T08:40:01.453Z,29.03
2022-12-22T08:42:28.804Z,39.13
2022-12-22T08:44:56.289Z,35.17
2022-12-22T08:47:23.607Z,30.80
2022-12-22T08:49:50.487Z,29.33
2022-12-22T08:52:19.493Z,32.20
2022-12-22T08:54:46.779Z,32.53
2022-12-22T08:57:13.703Z,30.90
2022-12-22T08:59:40.529Z,29.53
2022-12-22T09:02:07.551Z,26.10
2022-12-22T09:04:34.849Z,30.83
2022-12-22T09:07:04.676Z,27.73
2022-12-22T09:09:33.128Z,23.43
2022-12-22T09:12:01.079Z,32.70
2022-12-22T09:14:29.053Z,29.13
2022-12-22T09:16:58.082Z,34.67
2022-12-22T09:19:25.060Z,26.87
2022-12-22T09:21:51.956Z,27.87
2022-12-22T09:24:19.376Z,38.33
2022-12-22T09:26:46.544Z,27.67
2022-12-22T09:29:15.862Z,25.20
2022-12-22T09:31:43.407Z,22.33
2022-12-22T09:34:16.853Z,20.20
2022-12-22T09:36:44.517Z,19.13
2022-12-22T09:39:12.093Z,19.67
2022-12-22T09:41:51.643Z,23.83
2022-12-22T09:44:34.564Z,22.23
2022-12-22T09:47:05.026Z,23.43
2022-12-22T09:49:32.085Z,22.17
2022-12-22T09:52:04.554Z,24.53
2022-12-22T09:54:31.594Z,23.77
2022-12-22T09:56:58.853Z,18.43
2022-12-22T09:59:29.071Z,25.47
2022-12-22T10:02:21.379Z,25.87
2022-12-22T10:05:15.408Z,24.93
2022-12-22T10:07:43.698Z,26.80
2022-12-22T10:10:25.212Z,23.80
2022-12-22T10:12:57.051Z,28.83
2022-12-22T10:15:24.041Z,27.83
2022-12-22T10:17:52.811Z,26.97
2022-12-22T10:20:26.918Z,26.10
2022-12-22T10:23:13.190Z,26.50
2022-12-22T10:28:51.808Z,28.30
2022-12-22T10:31:22.498Z,26.37
2022-12-22T10:33:52.945Z,26.10
2022-12-22T10:36:30.316Z,29.30
2022-12-22T10:39:09.148Z,26.13
2022-12-22T10:41:42.770Z,27.33
2022-12-22T10:44:14.952Z,24.43
2022-12-22T10:46:45.955Z,23.67
2022-12-22T10:52:30.152Z,25.77
2022-12-22T10:55:17.232Z,28.57
2022-12-22T10:57:44.426Z,26.37
2022-12-22T11:00:41.678Z,28.13
2022-12-22T11:03:12.138Z,30.57
2022-12-22T11:05:39.398Z,26.00
2022-12-22T11:08:19.744Z,28.27
2022-12-22T11:11:22.923Z,30.10
2022-12-22T11:14:04.526Z,32.07
2022-12-22T11:16:45.493Z,30.27
2022-12-22T11:19:36.901Z,28.13
2022-12-22T11:22:06.759Z,26.53
2022-12-22T11:24:57.229Z,26.43
2022-12-22T11:27:30.081Z,23.80
2022-12-22T11:30:19.702Z,29.10
2022-12-22T11:33:12.900Z,25.73
2022-12-22T11:35:58.698Z,21.93
2022-12-22T11:38:26.316Z,24.47
2022-12-22T11:41:08.236Z,23.57
2022-12-22T11:44:06.349Z,29.47
2022-12-22T11:47:06.922Z,26.23
2022-12-22T11:49:55.453Z,20.73
2022-12-22T11:52:36.736Z,19.63
2022-12-22T11:55:12.165Z,26.90
2022-12-22T11:58:08.169Z,22.93
2022-12-22T12:01:13.562Z,22.10
2022-12-22T12:03:57.890Z,23.70
2022-12-22T12:06:34.103Z,23.23
2022-12-22T12:09:30.518Z,22.77
2022-12-22T12:12:07.461Z,19.80
2022-12-22T12:14:48.548Z,22.97
2022-12-22T12:17:53.956Z,18.77
2022-12-22T12:20:39.598Z,17.10
2022-12-22T12:23:39.092Z,17.23
2022-12-22T12:26:08.755Z,16.23
2022-12-22T12:28:51.799Z,16.20
2022-12-22T12:31:26.136Z,18.03
2022-12-22T12:33:56.827Z,15.37
2022-12-22T12:36:32.777Z,21.20
2022-12-22T12:39:07.851Z,17.43
2022-12-22T12:41:44.317Z,16.07
2022-12-22T12:44:18.878Z,14.63
2022-12-22T12:46:46.096Z,17.97
2022-12-22T12:49:57.811Z,20.17
2022-12-22T12:52:40.239Z,18.77
2022-12-22T12:55:33.221Z,19.63
2022-12-22T13:00:59.077Z,20.70
2022-12-22T13:04:02.538Z,23.77
2022-12-22T13:06:49.881Z,21.63
2022-12-22T13:12:40.184Z,22.60
2022-12-22T13:15:27.882Z,19.90
2022-12-22T13:17:54.850Z,20.67
2022-12-22T13:20:30.057Z,20.17
2022-12-22T13:23:03.017Z,22.57
2022-12-22T13:25:56.032Z,19.30
2022-12-22T13:28:23.957Z,17.13
2022-12-22T13:31:11.466Z,17.53
2022-12-22T13:33:40.149Z,14.90
2022-12-22T13:36:15.089Z,13.13
2022-12-22T13:38:42.021Z,18.87
2022-12-22T13:41:26.818Z,15.43
2022-12-22T13:44:02.702Z,15.70
2022-12-22T13:46:32.542Z,20.13
2022-12-22T13:49:00.519Z,15.37
2022-12-22T13:51:32.553Z,12.63
2022-12-22T13:54:12.577Z,13.50
2022-12-22T13:56:42.182Z,13.97
2022-12-22T13:59:28.993Z,15.00
2022-12-22T14:02:15.653Z,17.53
2022-12-22T14:04:51.756Z,16.07
2022-12-22T14:07:20.892Z,15.37
2022-12-22T14:09:50.296Z,14.47
2022-12-22T14:12:41.999Z,13.87
2022-12-22T14:15:17.541Z,16.90
2022-12-22T14:17:52.212Z,13.03
2022-12-22T14:20:28.464Z,20.77
2022-12-22T14:23:26.953Z,14.07
2022-12-22T14:25:55.759Z,10.77
2022-12-22T14:28:43.177Z,12.23
2022-12-22T14:31:13.243Z,19.43
2022-12-22T14:34:05.292Z,17.27
2022-12-22T14:36:40.588Z,22.33
2022-12-22T14:39:20.503Z,18.13
2022-12-22T14:41:51.824Z,16.37
2022-12-22T14:44:24.422Z,13.17
2022-12-22T14:47:12.413Z,15.73
2022-12-22T14:50:13.902Z,13.50
2022-12-22T14:52:51.147Z,14.90
2022-12-22T14:55:31.440Z,19.10
2022-12-22T14:58:23.028Z,15.47
2022-12-22T15:01:15.743Z,14.23
2022-12-22T15:03:43.767Z,16.00
2022-12-22T15:06:28.735Z,14.70
2022-12-22T15:09:11.973Z,11.63
2022-12-22T15:11:52.766Z,11.67
2022-12-22T15:14:23.121Z,13.73
2022-12-22T15:17:01.923Z,10.90
2022-12-22T15:19:32.335Z,9.63
2022-12-22T15:21:59.351Z,10.00
2022-12-22T15:24:29.288Z,12.77
2022-12-22T15:26:56.775Z,11.97
2022-12-22T15:29:23.689Z,11.57
2022-12-22T15:31:50.547Z,10.00
2022-12-22T15:34:29.254Z,16.47
2022-12-22T15:36:56.330Z,14.80
2022-12-22T15:39:24.637Z,19.03
2022-12-22T15:41:51.604Z,12.30
2022-12-22T15:44:18.497Z,12.90
2022-12-22T15:46:55.249Z,14.47
2022-12-22T15:49:30.532Z,13.73
2022-12-22T15:52:03.139Z,12.13
2022-12-22T15:54:33.309Z,13.60
2022-12-22T15:57:01.157Z,11.40
2022-12-22T15:59:29.700Z,14.00
2022-12-22T16:02:01.394Z,16.77
2022-12-22T16:04:29.465Z,28.43
2022-12-22T16:06:57.146Z,15.87
2022-12-22T16:09:27.764Z,16.80
2022-12-22T16:11:55.032Z,18.87
2022-12-22T16:14:22.959Z,23.33
2022-12-22T16:16:50.279Z,17.57
2022-12-22T16:19:18.555Z,31.93
2022-12-22T16:21:48.656Z,23.87
2022-12-22T16:24:35.568Z,20.90
2022-12-22T16:27:02.869Z,21.60
2022-12-22T16:29:30.100Z,23.43
2022-12-22T16:32:22.352Z,23.57
2022-12-22T16:34:49.239Z,27.50
2022-12-22T16:37:16.143Z,22.23
2022-12-22T16:39:43.154Z,26.53
2022-12-22T16:45:00.334Z,25.90
2022-12-22T16:47:31.357Z,45.10
2022-12-22T16:49:59.699Z,65.50
2022-12-22T16:52:38.861Z,21.00
2022-12-22T16:55:14.305Z,20.07
2022-12-22T16:57:41.102Z,20.50
2022-12-22T17:00:14.109Z,20.00
2022-12-22T17:02:47.767Z,19.17
2022-12-22T17:05:24.470Z,21.73
2022-12-22T17:07:51.625Z,20.13
2022-12-22T17:10:20.645Z,21.87
2022-12-22T17:12:49.071Z,21.97
2022-12-22T17:15:21.995Z,46.07
2022-12-22T17:17:49.340Z,24.17
2022-12-22T17:20:18.255Z,21.83
2022-12-22T17:22:57.096Z,21.03
2022-12-22T17:25:26.840Z,14.13
2022-12-22T17:27:57.593Z,14.63
2022-12-22T17:30:27.155Z,16.47
2022-12-22T17:32:54.502Z,16.90
2022-12-22T17:35:24.052Z,14.63
2022-12-22T17:37:53.538Z,12.77
2022-12-22T17:40:30.585Z,13.77
2022-12-22T17:43:00.943Z,17.43
2022-12-22T17:45:27.876Z,17.00
2022-12-22T17:47:54.697Z,17.53
2022-12-22T17:50:24.053Z,14.00
2022-12-22T17:52:52.590Z,16.07
2022-12-22T17:56:05.799Z,15.33
2022-12-22T17:58:16.842Z,13.60
2022-12-22T18:00:44.146Z,11.80
2022-12-22T18:03:14.932Z,18.00
2022-12-22T18:05:45.763Z,20.77
2022-12-22T18:08:19.261Z,18.70
2022-12-22T18:10:47.342Z,19.83
2022-12-22T18:13:17.471Z,13.17
2022-12-22T18:15:44.329Z,20.07
2022-12-22T18:18:16.111Z,14.37
2022-12-22T18:20:44.472Z,16.63
2022-12-22T18:23:33.297Z,21.97
2022-12-22T18:26:01.040Z,18.57
2022-12-22T18:28:29.017Z,19.27
2022-12-22T18:30:55.927Z,19.13
2022-12-22T18:33:22.734Z,15.57
2022-12-22T18:35:50.036Z,20.57
2022-12-22T18:38:29.946Z,18.30
2022-12-22T18:40:57.089Z,19.07
2022-12-22T18:43:24.666Z,19.80
2022-12-22T18:45:51.540Z,23.80
2022-12-22T18:48:18.357Z,15.57
2022-12-22T18:50:45.341Z,13.33
2022-12-22T18:53:30.055Z,15.27
2022-12-22T18:55:57.777Z,18.37
2022-12-22T18:58:25.264Z,17.60
2022-12-22T19:00:54.003Z,17.67
2022-12-22T19:03:28.924Z,15.00
2022-12-22T19:05:56.758Z,14.27
2022-12-22T19:08:28.037Z,12.37
2022-12-22T19:11:00.408Z,17.40
2022-12-22T19:13:31.148Z,15.00
2022-12-22T19:15:58.588Z,16.53
2022-12-22T19:18:27.625Z,18.87
2022-12-22T19:20:56.092Z,19.13
2022-12-22T19:23:25.580Z,14.87
2022-12-22T19:25:56.707Z,19.80
2022-12-22T19:28:34.158Z,14.73
2022-12-22T19:31:01.151Z,18.97
2022-12-22T19:33:43.061Z,14.73
2022-12-22T19:36:25.937Z,12.83
2022-12-22T19:39:03.272Z,13.60
2022-12-22T19:41:36.397Z,14.13
2022-12-22T19:44:04.148Z,17.87
2022-12-22T19:46:34.502Z,17.03
2022-12-22T19:49:01.732Z,18.17
2022-12-22T19:51:28.995Z,15.27
2022-12-22T19:53:55.866Z,15.10
2022-12-22T19:56:26.844Z,16.87
2022-12-22T19:58:55.695Z,17.03
2022-12-22T20:01:22.842Z,37.93
2022-12-22T20:03:51.053Z,21.10
2022-12-22T20:06:17.834Z,26.50
2022-12-22T20:08:44.913Z,15.63
2022-12-22T20:11:17.407Z,20.00
2022-12-22T20:13:44.954Z,21.30
2022-12-22T20:16:14.448Z,12.87
2022-12-22T20:18:42.148Z,19.23
2022-12-22T20:21:28.543Z,22.83
2022-12-22T20:23:58.053Z,23.70
2022-12-22T20:26:27.618Z,21.80
2022-12-22T20:28:55.726Z,24.60
2022-12-22T20:31:24.381Z,24.87
2022-12-22T20:33:52.391Z,22.90
2022-12-22T20:36:28.821Z,32.77
2022-12-22T20:39:00.210Z,33.73
2022-12-22T20:41:29.285Z,32.30
2022-12-22T20:43:56.716Z,37.60
2022-12-22T20:46:26.055Z,44.73
2022-12-22T20:48:56.304Z,42.83
2022-12-22T20:51:26.785Z,44.73
2022-12-22T20:53:54.550Z,48.87
2022-12-22T20:56:31.736Z,47.07
2022-12-22T20:59:00.791Z,28.13
2022-12-22T21:01:28.460Z,39.97
2022-12-22T21:03:55.594Z,30.33
2022-12-22T21:06:35.198Z,23.43
2022-12-22T21:09:02.905Z,33.80
2022-12-22T21:11:31.184Z,31.03
2022-12-22T21:13:59.207Z,33.03
2022-12-22T21:16:29.964Z,34.50
2022-12-22T21:18:57.687Z,19.53
2022-12-22T21:21:24.495Z,28.93
2022-12-22T21:23:51.713Z,25.80
2022-12-22T21:26:29.581Z,24.60
2022-12-22T21:28:56.698Z,23.57
2022-12-22T21:31:23.655Z,24.23
2022-12-22T21:33:50.723Z,20.33
2022-12-22T21:36:20.141Z,16.83
2022-12-22T21:38:56.850Z,18.00
2022-12-22T21:41:43.929Z,21.97
2022-12-22T21:44:14.338Z,21.07
2022-12-22T21:46:43.309Z,24.37
2022-12-22T21:49:21.573Z,20.40
2022-12-22T21:51:49.904Z,16.83
2022-12-22T21:54:18.038Z,22.33
2022-12-22T21:56:45.563Z,18.70
2022-12-22T21:59:12.458Z,21.00
2022-12-22T22:01:41.274Z,22.80
2022-12-22T22:04:08.753Z,16.93
2022-12-22T22:06:35.916Z,18.60
2022-12-22T22:09:05.110Z,20.30
2022-12-22T22:11:33.183Z,20.60
2022-12-22T22:14:00.521Z,21.40
2022-12-22T22:16:29.915Z,18.37
2022-12-22T22:18:56.983Z,22.87
2022-12-22T22:21:23.775Z,19.63
2022-12-22T22:23:50.591Z,22.90
2022-12-22T22:26:17.380Z,19.93
2022-12-22T22:28:47.546Z,18.20
2022-12-22T22:31:14.650Z,19.30
2022-12-22T22:33:41.423Z,20.90
2022-12-22T22:36:09.198Z,17.67
2022-12-22T22:38:36.319Z,16.70
2022-12-22T22:41:03.372Z,16.70
2022-12-22T22:43:30.309Z,18.20
2022-12-22T22:45:58.378Z,17.73
2022-12-22T22:48:25.584Z,14.20
2022-12-22T22:50:52.740Z,17.27
2022-12-22T22:53:19.633Z,16.33
2022-12-22T22:55:46.471Z,18.37
2022-12-22T22:58:14.077Z,16.00
2022-12-22T23:00:40.882Z,14.23
2022-12-22T23:03:07.818Z,18.63
2022-12-22T23:05:34.744Z,10.23
2022-12-22T23:08:01.697Z,16.50
2022-12-22T23:10:28.584Z,17.17
2022-12-22T23:12:55.624Z,11.03
2022-12-22T23:15:22.393Z,14.90
2022-12-22T23:17:52.955Z,14.57
2022-12-22T23:20:21.574Z,18.30
2022-12-22T23:22:48.501Z,17.07
2022-12-22T23:25:15.351Z,20.70
2022-12-22T23:27:44.928Z,14.97
2022-12-22T23:30:12.153Z,18.60
2022-12-22T23:32:39.032Z,15.77
2022-12-22T23:35:07.120Z,17.40
2022-12-22T23:37:33.881Z,18.13
2022-12-22T23:40:41.946Z,13.60
2022-12-22T23:42:56.607Z,15.70
2022-12-22T23:45:23.947Z,13.87
2022-12-22T23:47:50.748Z,20.63
2022-12-22T23:50:17.580Z,16.17
2022-12-22T23:52:49.188Z,14.53
2022-12-22T23:55:17.068Z,16.90
2022-12-22T23:57:43.997Z,19.13
